sensor_id;sensor_type;location;lat;lon;timestamp;P1;durP1;ratioP1;P2;durP2;ratioP2
4186;SDS011;2107;52.306;10.484;2024-02-14T00:02:23;0.50;;;0.50;;
4186;SDS011;2107;52.306;10.484;2024-02-14T00:04:50;0.70;;;0.70;;
4186;SDS011;2107;52.306;10.484;2024-02-14T00:07:18;0.50;;;0.50;;
4186;SDS011;2107;52.306;10.484;2024-02-14T00:09:45;0.40;;;0.40;;
4186;SDS011;2107;52.306;10.484;2024-02-14T00:12:12;0.50;;;0.50;;
4186;SDS011;2107;52.306;10.484;2024-02-14T00:14:40;0.30;;;0.30;;
4186;SDS011;2107;52.306;10.484;2024-02-14T00:17:07;0.50;;;0.50;;
4186;SDS011;2107;52.306;10.484;2024-02-14T00:19:35;0.30;;;0.30;;
4186;SDS011;2107;52.306;10.484;2024-02-14T00:22:02;0.30;;;0.30;;
4186;SDS011;2107;52.306;10.484;2024-02-14T00:24:29;0.40;;;0.40;;
4186;SDS011;2107;52.306;10.484;2024-02-14T00:26:57;0.37;;;0.37;;
4186;SDS011;2107;52.306;10.484;2024-02-14T00:29:25;0.40;;;0.40;;
4186;SDS011;2107;52.306;10.484;2024-02-14T00:31:53;0.40;;;0.40;;
4186;SDS011;2107;52.306;10.484;2024-02-14T00:34:20;0.40;;;0.40;;
4186;SDS011;2107;52.306;10.484;2024-02-14T00:36:47;0.50;;;0.50;;
4186;SDS011;2107;52.306;10.484;2024-02-14T00:39:14;0.40;;;0.40;;
4186;SDS011;2107;52.306;10.484;2024-02-14T00:41:41;0.40;;;0.40;;
4186;SDS011;2107;52.306;10.484;2024-02-14T00:44:08;0.40;;;0.40;;
4186;SDS011;2107;52.306;10.484;2024-02-14T00:46:34;0.30;;;0.30;;
4186;SDS011;2107;52.306;10.484;2024-02-14T00:49:02;0.60;;;0.60;;
4186;SDS011;2107;52.306;10.484;2024-02-14T00:51:29;0.30;;;0.30;;
4186;SDS011;2107;52.306;10.484;2024-02-14T00:53:56;0.40;;;0.40;;
4186;SDS011;2107;52.306;10.484;2024-02-14T00:56:23;0.40;;;0.40;;
4186;SDS011;2107;52.306;10.484;2024-02-14T00:58:50;0.30;;;0.30;;
4186;SDS011;2107;52.306;10.484;2024-02-14T01:01:16;0.40;;;0.40;;
4186;SDS011;2107;52.306;10.484;2024-02-14T01:03:43;0.40;;;0.40;;
4186;SDS011;2107;52.306;10.484;2024-02-14T01:06:12;0.30;;;0.30;;
4186;SDS011;2107;52.306;10.484;2024-02-14T01:08:40;0.40;;;0.40;;
4186;SDS011;2107;52.306;10.484;2024-02-14T01:11:07;0.30;;;0.30;;
4186;SDS011;2107;52.306;10.484;2024-02-14T01:13:34;0.40;;;0.40;;
4186;SDS011;2107;52.306;10.484;2024-02-14T01:16:02;0.40;;;0.40;;
4186;SDS011;2107;52.306;10.484;2024-02-14T01:18:30;0.30;;;0.30;;
4186;SDS011;2107;52.306;10.484;2024-02-14T01:20:57;0.20;;;0.20;;
4186;SDS011;2107;52.306;10.484;2024-02-14T01:23:27;0.30;;;0.30;;
4186;SDS011;2107;52.306;10.484;2024-02-14T01:25:53;0.20;;;0.20;;
4186;SDS011;2107;52.306;10.484;2024-02-14T01:28:20;0.20;;;0.20;;
4186;SDS011;2107;52.306;10.484;2024-02-14T01:30:47;0.20;;;0.20;;
4186;SDS011;2107;52.306;10.484;2024-02-14T01:33:15;0.20;;;0.20;;
4186;SDS011;2107;52.306;10.484;2024-02-14T01:35:42;0.20;;;0.20;;
4186;SDS011;2107;52.306;10.484;2024-02-14T01:38:09;0.30;;;0.30;;
4186;SDS011;2107;52.306;10.484;2024-02-14T01:40:38;0.30;;;0.30;;
4186;SDS011;2107;52.306;10.484;2024-02-14T01:43:09;0.20;;;0.20;;
4186;SDS011;2107;52.306;10.484;2024-02-14T01:45:37;0.30;;;0.30;;
4186;SDS011;2107;52.306;10.484;2024-02-14T01:48:04;0.20;;;0.20;;
4186;SDS011;2107;52.306;10.484;2024-02-14T01:50:33;0.40;;;0.40;;
4186;SDS011;2107;52.306;10.484;2024-02-14T01:53:00;0.30;;;0.30;;
4186;SDS011;2107;52.306;10.484;2024-02-14T01:55:28;0.30;;;0.30;;
4186;SDS011;2107;52.306;10.484;2024-02-14T01:57:57;0.50;;;0.50;;
4186;SDS011;2107;52.306;10.484;2024-02-14T02:00:24;0.50;;;0.50;;
4186;SDS011;2107;52.306;10.484;2024-02-14T02:02:52;0.20;;;0.20;;
4186;SDS011;2107;52.306;10.484;2024-02-14T02:05:20;0.40;;;0.40;;
4186;SDS011;2107;52.306;10.484;2024-02-14T02:07:47;0.30;;;0.30;;
4186;SDS011;2107;52.306;10.484;2024-02-14T02:10:14;0.40;;;0.40;;
4186;SDS011;2107;52.306;10.484;2024-02-14T02:12:41;0.23;;;0.23;;
4186;SDS011;2107;52.306;10.484;2024-02-14T02:15:10;0.30;;;0.30;;
4186;SDS011;2107;52.306;10.484;2024-02-14T02:17:38;0.30;;;0.30;;
4186;SDS011;2107;52.306;10.484;2024-02-14T02:20:05;0.30;;;0.30;;
4186;SDS011;2107;52.306;10.484;2024-02-14T02:22:34;0.30;;;0.30;;
4186;SDS011;2107;52.306;10.484;2024-02-14T02:25:03;0.40;;;0.40;;
4186;SDS011;2107;52.306;10.484;2024-02-14T02:27:31;0.40;;;0.40;;
4186;SDS011;2107;52.306;10.484;2024-02-14T02:30:00;0.30;;;0.30;;
4186;SDS011;2107;52.306;10.484;2024-02-14T02:32:27;0.30;;;0.30;;
4186;SDS011;2107;52.306;10.484;2024-02-14T02:34:54;0.50;;;0.50;;
4186;SDS011;2107;52.306;10.484;2024-02-14T02:37:21;0.30;;;0.30;;
4186;SDS011;2107;52.306;10.484;2024-02-14T02:39:48;0.30;;;0.30;;
4186;SDS011;2107;52.306;10.484;2024-02-14T02:42:17;0.20;;;0.20;;
4186;SDS011;2107;52.306;10.484;2024-02-14T02:44:45;0.30;;;0.30;;
4186;SDS011;2107;52.306;10.484;2024-02-14T02:47:13;0.30;;;0.30;;
4186;SDS011;2107;52.306;10.484;2024-02-14T02:49:41;0.30;;;0.30;;
4186;SDS011;2107;52.306;10.484;2024-02-14T02:52:09;0.30;;;0.30;;
4186;SDS011;2107;52.306;10.484;2024-02-14T02:54:36;0.30;;;0.30;;
4186;SDS011;2107;52.306;10.484;2024-02-14T02:57:05;0.40;;;0.40;;
4186;SDS011;2107;52.306;10.484;2024-02-14T02:59:34;0.40;;;0.40;;
4186;SDS011;2107;52.306;10.484;2024-02-14T03:02:01;0.40;;;0.40;;
4186;SDS011;2107;52.306;10.484;2024-02-14T03:04:29;0.50;;;0.50;;
4186;SDS011;2107;52.306;10.484;2024-02-14T03:06:56;0.40;;;0.40;;
4186;SDS011;2107;52.306;10.484;2024-02-14T03:09:23;0.63;;;0.63;;
4186;SDS011;2107;52.306;10.484;2024-02-14T03:11:52;0.40;;;0.40;;
4186;SDS011;2107;52.306;10.484;2024-02-14T03:14:21;1.00;;;1.00;;
4186;SDS011;2107;52.306;10.484;2024-02-14T03:16:50;0.70;;;0.70;;
4186;SDS011;2107;52.306;10.484;2024-02-14T03:19:17;1.00;;;1.00;;
4186;SDS011;2107;52.306;10.484;2024-02-14T03:21:44;0.57;;;0.57;;
4186;SDS011;2107;52.306;10.484;2024-02-14T03:24:11;0.30;;;0.30;;
4186;SDS011;2107;52.306;10.484;2024-02-14T03:26:39;0.40;;;0.40;;
4186;SDS011;2107;52.306;10.484;2024-02-14T03:29:07;0.30;;;0.30;;
4186;SDS011;2107;52.306;10.484;2024-02-14T03:31:33;0.30;;;0.30;;
4186;SDS011;2107;52.306;10.484;2024-02-14T03:34:02;0.30;;;0.30;;
4186;SDS011;2107;52.306;10.484;2024-02-14T03:36:29;0.30;;;0.30;;
4186;SDS011;2107;52.306;10.484;2024-02-14T03:38:56;0.10;;;0.10;;
4186;SDS011;2107;52.306;10.484;2024-02-14T03:41:23;0.20;;;0.20;;
4186;SDS011;2107;52.306;10.484;2024-02-14T03:43:50;0.20;;;0.20;;
4186;SDS011;2107;52.306;10.484;2024-02-14T03:46:18;0.30;;;0.30;;
4186;SDS011;2107;52.306;10.484;2024-02-14T03:48:46;0.40;;;0.40;;
4186;SDS011;2107;52.306;10.484;2024-02-14T03:51:15;0.40;;;0.40;;
4186;SDS011;2107;52.306;10.484;2024-02-14T03:53:42;0.30;;;0.30;;
4186;SDS011;2107;52.306;10.484;2024-02-14T03:56:09;0.30;;;0.30;;
4186;SDS011;2107;52.306;10.484;2024-02-14T03:58:37;0.30;;;0.30;;
4186;SDS011;2107;52.306;10.484;2024-02-14T04:01:04;0.30;;;0.30;;
4186;SDS011;2107;52.306;10.484;2024-02-14T04:03:32;0.30;;;0.30;;
4186;SDS011;2107;52.306;10.484;2024-02-14T04:05:59;0.20;;;0.20;;
4186;SDS011;2107;52.306;10.484;2024-02-14T04:08:27;0.20;;;0.20;;
4186;SDS011;2107;52.306;10.484;2024-02-14T04:10:54;0.20;;;0.20;;
4186;SDS011;2107;52.306;10.484;2024-02-14T04:13:21;0.20;;;0.20;;
4186;SDS011;2107;52.306;10.484;2024-02-14T04:15:48;0.20;;;0.20;;
4186;SDS011;2107;52.306;10.484;2024-02-14T04:18:15;0.20;;;0.20;;
4186;SDS011;2107;52.306;10.484;2024-02-14T04:20:43;0.20;;;0.20;;
4186;SDS011;2107;52.306;10.484;2024-02-14T04:23:10;0.20;;;0.20;;
4186;SDS011;2107;52.306;10.484;2024-02-14T04:25:38;0.20;;;0.20;;
4186;SDS011;2107;52.306;10.484;2024-02-14T04:28:05;0.20;;;0.20;;
4186;SDS011;2107;52.306;10.484;2024-02-14T04:30:32;0.20;;;0.20;;
4186;SDS011;2107;52.306;10.484;2024-02-14T04:33:01;0.33;;;0.33;;
4186;SDS011;2107;52.306;10.484;2024-02-14T04:35:29;0.40;;;0.40;;
4186;SDS011;2107;52.306;10.484;2024-02-14T04:37:56;0.70;;;0.70;;
4186;SDS011;2107;52.306;10.484;2024-02-14T04:40:23;0.50;;;0.50;;
4186;SDS011;2107;52.306;10.484;2024-02-14T04:42:51;0.50;;;0.50;;
4186;SDS011;2107;52.306;10.484;2024-02-14T04:45:18;0.60;;;0.60;;
4186;SDS011;2107;52.306;10.484;2024-02-14T04:47:45;0.53;;;0.53;;
4186;SDS011;2107;52.306;10.484;2024-02-14T04:50:12;0.70;;;0.70;;
4186;SDS011;2107;52.306;10.484;2024-02-14T04:52:39;0.67;;;0.67;;
4186;SDS011;2107;52.306;10.484;2024-02-14T04:55:06;0.70;;;0.70;;
4186;SDS011;2107;52.306;10.484;2024-02-14T04:57:34;0.90;;;0.90;;
4186;SDS011;2107;52.306;10.484;2024-02-14T05:00:04;0.80;;;0.80;;
4186;SDS011;2107;52.306;10.484;2024-02-14T05:02:32;1.00;;;1.00;;
4186;SDS011;2107;52.306;10.484;2024-02-14T05:04:59;1.00;;;1.00;;
4186;SDS011;2107;52.306;10.484;2024-02-14T05:07:26;1.10;;;1.10;;
4186;SDS011;2107;52.306;10.484;2024-02-14T05:09:53;1.00;;;1.00;;
4186;SDS011;2107;52.306;10.484;2024-02-14T05:12:21;1.20;;;1.20;;
4186;SDS011;2107;52.306;10.484;2024-02-14T05:14:48;1.30;;;1.30;;
4186;SDS011;2107;52.306;10.484;2024-02-14T05:17:16;1.40;;;1.40;;
4186;SDS011;2107;52.306;10.484;2024-02-14T05:19:43;1.40;;;1.40;;
4186;SDS011;2107;52.306;10.484;2024-02-14T05:22:10;0.80;;;0.80;;
4186;SDS011;2107;52.306;10.484;2024-02-14T05:24:37;0.70;;;0.70;;
4186;SDS011;2107;52.306;10.484;2024-02-14T05:27:04;0.50;;;0.50;;
4186;SDS011;2107;52.306;10.484;2024-02-14T05:29:31;0.50;;;0.50;;
4186;SDS011;2107;52.306;10.484;2024-02-14T05:31:58;0.50;;;0.50;;
4186;SDS011;2107;52.306;10.484;2024-02-14T05:34:26;0.30;;;0.30;;
4186;SDS011;2107;52.306;10.484;2024-02-14T05:36:53;0.30;;;0.30;;
4186;SDS011;2107;52.306;10.484;2024-02-14T05:39:20;0.30;;;0.30;;
4186;SDS011;2107;52.306;10.484;2024-02-14T05:41:47;0.20;;;0.20;;
4186;SDS011;2107;52.306;10.484;2024-02-14T05:44:15;0.20;;;0.20;;
4186;SDS011;2107;52.306;10.484;2024-02-14T05:46:41;0.30;;;0.30;;
4186;SDS011;2107;52.306;10.484;2024-02-14T05:49:08;0.20;;;0.20;;
4186;SDS011;2107;52.306;10.484;2024-02-14T05:51:36;0.10;;;0.10;;
4186;SDS011;2107;52.306;10.484;2024-02-14T05:54:03;0.10;;;0.10;;
4186;SDS011;2107;52.306;10.484;2024-02-14T05:56:30;0.13;;;0.13;;
4186;SDS011;2107;52.306;10.484;2024-02-14T05:58:57;0.10;;;0.10;;
4186;SDS011;2107;52.306;10.484;2024-02-14T06:01:24;0.10;;;0.10;;
4186;SDS011;2107;52.306;10.484;2024-02-14T06:03:51;0.10;;;0.10;;
4186;SDS011;2107;52.306;10.484;2024-02-14T06:06:18;0.10;;;0.10;;
4186;SDS011;2107;52.306;10.484;2024-02-14T06:08:46;0.10;;;0.10;;
4186;SDS011;2107;52.306;10.484;2024-02-14T06:11:13;0.10;;;0.10;;
4186;SDS011;2107;52.306;10.484;2024-02-14T06:13:41;0.10;;;0.10;;
4186;SDS011;2107;52.306;10.484;2024-02-14T06:16:08;0.10;;;0.10;;
4186;SDS011;2107;52.306;10.484;2024-02-14T06:18:36;0.10;;;0.10;;
4186;SDS011;2107;52.306;10.484;2024-02-14T06:21:04;0.10;;;0.10;;
4186;SDS011;2107;52.306;10.484;2024-02-14T06:23:31;0.10;;;0.10;;
4186;SDS011;2107;52.306;10.484;2024-02-14T06:25:59;0.10;;;0.10;;
4186;SDS011;2107;52.306;10.484;2024-02-14T06:28:26;0.10;;;0.10;;
4186;SDS011;2107;52.306;10.484;2024-02-14T06:30:53;0.10;;;0.10;;
4186;SDS011;2107;52.306;10.484;2024-02-14T06:33:20;0.10;;;0.10;;
4186;SDS011;2107;52.306;10.484;2024-02-14T06:35:47;0.20;;;0.20;;
4186;SDS011;2107;52.306;10.484;2024-02-14T06:38:14;0.20;;;0.20;;
4186;SDS011;2107;52.306;10.484;2024-02-14T06:40:41;0.20;;;0.20;;
4186;SDS011;2107;52.306;10.484;2024-02-14T06:43:10;0.20;;;0.20;;
4186;SDS011;2107;52.306;10.484;2024-02-14T06:45:37;0.20;;;0.20;;
4186;SDS011;2107;52.306;10.484;2024-02-14T06:48:04;0.20;;;0.20;;
4186;SDS011;2107;52.306;10.484;2024-02-14T06:50:33;0.20;;;0.20;;
4186;SDS011;2107;52.306;10.484;2024-02-14T06:53:00;0.20;;;0.20;;
4186;SDS011;2107;52.306;10.484;2024-02-14T06:55:27;0.20;;;0.20;;
4186;SDS011;2107;52.306;10.484;2024-02-14T06:57:53;0.20;;;0.20;;
4186;SDS011;2107;52.306;10.484;2024-02-14T07:00:23;0.20;;;0.20;;
4186;SDS011;2107;52.306;10.484;2024-02-14T07:02:49;0.20;;;0.20;;
4186;SDS011;2107;52.306;10.484;2024-02-14T07:05:16;0.10;;;0.10;;
4186;SDS011;2107;52.306;10.484;2024-02-14T07:07:43;0.20;;;0.20;;
4186;SDS011;2107;52.306;10.484;2024-02-14T07:10:10;0.20;;;0.20;;
4186;SDS011;2107;52.306;10.484;2024-02-14T07:12:37;0.20;;;0.20;;
4186;SDS011;2107;52.306;10.484;2024-02-14T07:15:05;0.10;;;0.10;;
4186;SDS011;2107;52.306;10.484;2024-02-14T07:17:34;0.10;;;0.10;;
4186;SDS011;2107;52.306;10.484;2024-02-14T07:20:01;0.10;;;0.10;;
4186;SDS011;2107;52.306;10.484;2024-02-14T07:22:28;0.10;;;0.10;;
4186;SDS011;2107;52.306;10.484;2024-02-14T07:24:56;0.10;;;0.10;;
4186;SDS011;2107;52.306;10.484;2024-02-14T07:27:23;0.10;;;0.10;;
4186;SDS011;2107;52.306;10.484;2024-02-14T07:29:50;0.10;;;0.10;;
4186;SDS011;2107;52.306;10.484;2024-02-14T07:32:16;0.00;;;0.00;;
4186;SDS011;2107;52.306;10.484;2024-02-14T07:34:45;0.00;;;0.00;;
4186;SDS011;2107;52.306;10.484;2024-02-14T07:37:12;0.00;;;0.00;;
4186;SDS011;2107;52.306;10.484;2024-02-14T07:39:40;0.00;;;0.00;;
4186;SDS011;2107;52.306;10.484;2024-02-14T07:42:06;0.00;;;0.00;;
4186;SDS011;2107;52.306;10.484;2024-02-14T07:44:33;0.00;;;0.00;;
4186;SDS011;2107;52.306;10.484;2024-02-14T07:47:01;0.00;;;0.00;;
4186;SDS011;2107;52.306;10.484;2024-02-14T07:49:28;0.00;;;0.00;;
4186;SDS011;2107;52.306;10.484;2024-02-14T07:51:56;0.00;;;0.00;;
4186;SDS011;2107;52.306;10.484;2024-02-14T07:54:23;0.00;;;0.00;;
4186;SDS011;2107;52.306;10.484;2024-02-14T07:56:50;0.00;;;0.00;;
4186;SDS011;2107;52.306;10.484;2024-02-14T07:59:17;0.00;;;0.00;;
4186;SDS011;2107;52.306;10.484;2024-02-14T08:01:45;0.00;;;0.00;;
4186;SDS011;2107;52.306;10.484;2024-02-14T08:04:12;0.00;;;0.00;;
4186;SDS011;2107;52.306;10.484;2024-02-14T08:06:39;0.00;;;0.00;;
4186;SDS011;2107;52.306;10.484;2024-02-14T08:09:07;0.00;;;0.00;;
4186;SDS011;2107;52.306;10.484;2024-02-14T08:11:34;0.00;;;0.00;;
4186;SDS011;2107;52.306;10.484;2024-02-14T08:14:01;0.00;;;0.00;;
4186;SDS011;2107;52.306;10.484;2024-02-14T08:16:29;0.00;;;0.00;;
4186;SDS011;2107;52.306;10.484;2024-02-14T08:18:55;0.00;;;0.00;;
4186;SDS011;2107;52.306;10.484;2024-02-14T08:21:24;0.00;;;0.00;;
4186;SDS011;2107;52.306;10.484;2024-02-14T08:23:51;0.00;;;0.00;;
4186;SDS011;2107;52.306;10.484;2024-02-14T08:26:19;0.00;;;0.00;;
4186;SDS011;2107;52.306;10.484;2024-02-14T08:28:47;0.00;;;0.00;;
4186;SDS011;2107;52.306;10.484;2024-02-14T08:31:14;0.00;;;0.00;;
4186;SDS011;2107;52.306;10.484;2024-02-14T08:33:42;0.00;;;0.00;;
4186;SDS011;2107;52.306;10.484;2024-02-14T08:36:08;0.00;;;0.00;;
4186;SDS011;2107;52.306;10.484;2024-02-14T08:38:35;0.00;;;0.00;;
4186;SDS011;2107;52.306;10.484;2024-02-14T08:41:02;0.00;;;0.00;;
4186;SDS011;2107;52.306;10.484;2024-02-14T08:43:31;0.00;;;0.00;;
4186;SDS011;2107;52.306;10.484;2024-02-14T08:45:58;0.00;;;0.00;;
4186;SDS011;2107;52.306;10.484;2024-02-14T08:48:25;0.00;;;0.00;;
4186;SDS011;2107;52.306;10.484;2024-02-14T08:50:54;0.00;;;0.00;;
4186;SDS011;2107;52.306;10.484;2024-02-14T08:53:21;0.00;;;0.00;;
4186;SDS011;2107;52.306;10.484;2024-02-14T08:55:48;0.00;;;0.00;;
4186;SDS011;2107;52.306;10.484;2024-02-14T08:58:15;0.00;;;0.00;;
4186;SDS011;2107;52.306;10.484;2024-02-14T09:00:43;0.00;;;0.00;;
4186;SDS011;2107;52.306;10.484;2024-02-14T09:03:10;0.00;;;0.00;;
4186;SDS011;2107;52.306;10.484;2024-02-14T09:05:37;0.00;;;0.00;;
4186;SDS011;2107;52.306;10.484;2024-02-14T09:08:05;0.00;;;0.00;;
4186;SDS011;2107;52.306;10.484;2024-02-14T09:10:32;0.00;;;0.00;;
4186;SDS011;2107;52.306;10.484;2024-02-14T09:12:59;0.00;;;0.00;;
4186;SDS011;2107;52.306;10.484;2024-02-14T09:15:27;0.00;;;0.00;;
4186;SDS011;2107;52.306;10.484;2024-02-14T09:17:57;0.00;;;0.00;;
4186;SDS011;2107;52.306;10.484;2024-02-14T09:20:25;0.00;;;0.00;;
4186;SDS011;2107;52.306;10.484;2024-02-14T09:22:52;0.00;;;0.00;;
4186;SDS011;2107;52.306;10.484;2024-02-14T09:25:19;0.00;;;0.00;;
4186;SDS011;2107;52.306;10.484;2024-02-14T09:27:48;0.00;;;0.00;;
4186;SDS011;2107;52.306;10.484;2024-02-14T09:30:15;0.00;;;0.00;;
4186;SDS011;2107;52.306;10.484;2024-02-14T09:32:42;0.00;;;0.00;;
4186;SDS011;2107;52.306;10.484;2024-02-14T09:35:11;0.00;;;0.00;;
4186;SDS011;2107;52.306;10.484;2024-02-14T09:37:37;0.00;;;0.00;;
4186;SDS011;2107;52.306;10.484;2024-02-14T09:40:04;0.00;;;0.00;;
4186;SDS011;2107;52.306;10.484;2024-02-14T09:42:33;0.00;;;0.00;;
4186;SDS011;2107;52.306;10.484;2024-02-14T09:45:06;0.00;;;0.00;;
4186;SDS011;2107;52.306;10.484;2024-02-14T09:47:33;0.00;;;0.00;;
4186;SDS011;2107;52.306;10.484;2024-02-14T09:50:01;0.00;;;0.00;;
4186;SDS011;2107;52.306;10.484;2024-02-14T09:52:32;0.00;;;0.00;;
4186;SDS011;2107;52.306;10.484;2024-02-14T09:55:00;0.00;;;0.00;;
4186;SDS011;2107;52.306;10.484;2024-02-14T09:57:30;0.00;;;0.00;;
4186;SDS011;2107;52.306;10.484;2024-02-14T09:59:57;0.00;;;0.00;;
4186;SDS011;2107;52.306;10.484;2024-02-14T10:02:26;0.00;;;0.00;;
4186;SDS011;2107;52.306;10.484;2024-02-14T10:04:53;0.00;;;0.00;;
4186;SDS011;2107;52.306;10.484;2024-02-14T10:07:20;0.00;;;0.00;;
4186;SDS011;2107;52.306;10.484;2024-02-14T10:09:48;0.00;;;0.00;;
4186;SDS011;2107;52.306;10.484;2024-02-14T10:12:15;0.00;;;0.00;;
4186;SDS011;2107;52.306;10.484;2024-02-14T10:14:42;0.00;;;0.00;;
4186;SDS011;2107;52.306;10.484;2024-02-14T10:17:16;0.00;;;0.00;;
4186;SDS011;2107;52.306;10.484;2024-02-14T10:19:44;0.00;;;0.00;;
4186;SDS011;2107;52.306;10.484;2024-02-14T10:22:21;0.00;;;0.00;;
4186;SDS011;2107;52.306;10.484;2024-02-14T10:24:49;0.00;;;0.00;;
4186;SDS011;2107;52.306;10.484;2024-02-14T10:27:16;0.00;;;0.00;;
4186;SDS011;2107;52.306;10.484;2024-02-14T10:29:43;0.00;;;0.00;;
4186;SDS011;2107;52.306;10.484;2024-02-14T10:32:13;0.00;;;0.00;;
4186;SDS011;2107;52.306;10.484;2024-02-14T10:34:41;0.00;;;0.00;;
4186;SDS011;2107;52.306;10.484;2024-02-14T10:37:10;0.00;;;0.00;;
4186;SDS011;2107;52.306;10.484;2024-02-14T10:39:41;0.00;;;0.00;;
4186;SDS011;2107;52.306;10.484;2024-02-14T10:42:11;0.00;;;0.00;;
4186;SDS011;2107;52.306;10.484;2024-02-14T10:44:38;0.00;;;0.00;;
4186;SDS011;2107;52.306;10.484;2024-02-14T10:47:05;0.00;;;0.00;;
4186;SDS011;2107;52.306;10.484;2024-02-14T10:49:37;0.00;;;0.00;;
4186;SDS011;2107;52.306;10.484;2024-02-14T10:52:06;0.00;;;0.00;;
4186;SDS011;2107;52.306;10.484;2024-02-14T10:54:35;0.00;;;0.00;;
4186;SDS011;2107;52.306;10.484;2024-02-14T10:57:04;0.10;;;0.10;;
4186;SDS011;2107;52.306;10.484;2024-02-14T10:59:37;0.10;;;0.10;;
4186;SDS011;2107;52.306;10.484;2024-02-14T11:02:09;0.10;;;0.10;;
4186;SDS011;2107;52.306;10.484;2024-02-14T11:04:36;0.20;;;0.20;;
4186;SDS011;2107;52.306;10.484;2024-02-14T11:07:08;0.10;;;0.10;;
4186;SDS011;2107;52.306;10.484;2024-02-14T11:09:36;0.10;;;0.10;;
4186;SDS011;2107;52.306;10.484;2024-02-14T11:12:03;0.10;;;0.10;;
4186;SDS011;2107;52.306;10.484;2024-02-14T11:14:33;0.13;;;0.13;;
4186;SDS011;2107;52.306;10.484;2024-02-14T11:17:08;0.10;;;0.10;;
4186;SDS011;2107;52.306;10.484;2024-02-14T11:19:35;0.10;;;0.10;;
4186;SDS011;2107;52.306;10.484;2024-02-14T11:22:11;0.10;;;0.10;;
4186;SDS011;2107;52.306;10.484;2024-02-14T11:24:39;0.10;;;0.10;;
4186;SDS011;2107;52.306;10.484;2024-02-14T11:27:09;0.10;;;0.10;;
4186;SDS011;2107;52.306;10.484;2024-02-14T11:29:38;0.10;;;0.10;;
4186;SDS011;2107;52.306;10.484;2024-02-14T11:32:08;0.10;;;0.10;;
4186;SDS011;2107;52.306;10.484;2024-02-14T11:34:38;0.10;;;0.10;;
4186;SDS011;2107;52.306;10.484;2024-02-14T11:37:05;0.10;;;0.10;;
4186;SDS011;2107;52.306;10.484;2024-02-14T11:39:32;0.10;;;0.10;;
4186;SDS011;2107;52.306;10.484;2024-02-14T11:42:00;0.20;;;0.20;;
4186;SDS011;2107;52.306;10.484;2024-02-14T11:44:27;0.10;;;0.10;;
4186;SDS011;2107;52.306;10.484;2024-02-14T11:46:54;0.10;;;0.10;;
4186;SDS011;2107;52.306;10.484;2024-02-14T11:49:23;0.20;;;0.20;;
4186;SDS011;2107;52.306;10.484;2024-02-14T11:51:50;0.10;;;0.10;;
4186;SDS011;2107;52.306;10.484;2024-02-14T11:54:18;0.10;;;0.10;;
4186;SDS011;2107;52.306;10.484;2024-02-14T11:56:46;0.10;;;0.10;;
4186;SDS011;2107;52.306;10.484;2024-02-14T11:59:14;0.10;;;0.10;;
4186;SDS011;2107;52.306;10.484;2024-02-14T12:01:44;0.10;;;0.10;;
4186;SDS011;2107;52.306;10.484;2024-02-14T12:04:13;0.10;;;0.10;;
4186;SDS011;2107;52.306;10.484;2024-02-14T12:06:41;0.10;;;0.10;;
4186;SDS011;2107;52.306;10.484;2024-02-14T12:09:08;0.10;;;0.10;;
4186;SDS011;2107;52.306;10.484;2024-02-14T12:11:38;0.10;;;0.10;;
4186;SDS011;2107;52.306;10.484;2024-02-14T12:14:07;0.20;;;0.20;;
4186;SDS011;2107;52.306;10.484;2024-02-14T12:16:35;0.20;;;0.20;;
4186;SDS011;2107;52.306;10.484;2024-02-14T12:19:03;0.20;;;0.20;;
4186;SDS011;2107;52.306;10.484;2024-02-14T12:21:34;0.20;;;0.20;;
4186;SDS011;2107;52.306;10.484;2024-02-14T12:24:02;0.20;;;0.20;;
4186;SDS011;2107;52.306;10.484;2024-02-14T12:26:30;0.20;;;0.20;;
4186;SDS011;2107;52.306;10.484;2024-02-14T12:28:57;0.20;;;0.20;;
4186;SDS011;2107;52.306;10.484;2024-02-14T12:31:27;0.20;;;0.20;;
4186;SDS011;2107;52.306;10.484;2024-02-14T12:33:55;0.20;;;0.20;;
4186;SDS011;2107;52.306;10.484;2024-02-14T12:36:24;0.20;;;0.20;;
4186;SDS011;2107;52.306;10.484;2024-02-14T12:38:52;0.20;;;0.20;;
4186;SDS011;2107;52.306;10.484;2024-02-14T12:41:20;0.10;;;0.10;;
4186;SDS011;2107;52.306;10.484;2024-02-14T12:43:48;0.20;;;0.20;;
4186;SDS011;2107;52.306;10.484;2024-02-14T12:46:16;0.10;;;0.10;;
4186;SDS011;2107;52.306;10.484;2024-02-14T12:48:42;0.13;;;0.13;;
4186;SDS011;2107;52.306;10.484;2024-02-14T12:51:09;0.10;;;0.10;;
4186;SDS011;2107;52.306;10.484;2024-02-14T12:53:36;0.13;;;0.13;;
4186;SDS011;2107;52.306;10.484;2024-02-14T12:56:03;0.10;;;0.10;;
4186;SDS011;2107;52.306;10.484;2024-02-14T12:58:32;0.10;;;0.10;;
4186;SDS011;2107;52.306;10.484;2024-02-14T13:01:00;0.20;;;0.20;;
4186;SDS011;2107;52.306;10.484;2024-02-14T13:03:30;0.20;;;0.20;;
4186;SDS011;2107;52.306;10.484;2024-02-14T13:05:58;0.20;;;0.20;;
4186;SDS011;2107;52.306;10.484;2024-02-14T13:08:25;0.20;;;0.20;;
4186;SDS011;2107;52.306;10.484;2024-02-14T13:10:52;0.10;;;0.10;;
4186;SDS011;2107;52.306;10.484;2024-02-14T13:13:19;0.10;;;0.10;;
4186;SDS011;2107;52.306;10.484;2024-02-14T13:15:47;0.10;;;0.10;;
4186;SDS011;2107;52.306;10.484;2024-02-14T13:18:14;0.10;;;0.10;;
4186;SDS011;2107;52.306;10.484;2024-02-14T13:20:41;0.10;;;0.10;;
4186;SDS011;2107;52.306;10.484;2024-02-14T13:23:09;0.20;;;0.20;;
4186;SDS011;2107;52.306;10.484;2024-02-14T13:25:36;0.20;;;0.20;;
4186;SDS011;2107;52.306;10.484;2024-02-14T13:28:03;0.20;;;0.20;;
4186;SDS011;2107;52.306;10.484;2024-02-14T13:30:30;0.20;;;0.20;;
4186;SDS011;2107;52.306;10.484;2024-02-14T13:32:59;0.20;;;0.20;;
4186;SDS011;2107;52.306;10.484;2024-02-14T13:35:26;0.20;;;0.20;;
4186;SDS011;2107;52.306;10.484;2024-02-14T13:37:54;0.40;;;0.40;;
4186;SDS011;2107;52.306;10.484;2024-02-14T13:40:21;0.40;;;0.40;;
4186;SDS011;2107;52.306;10.484;2024-02-14T13:42:48;0.20;;;0.20;;
4186;SDS011;2107;52.306;10.484;2024-02-14T13:45:15;0.40;;;0.40;;
4186;SDS011;2107;52.306;10.484;2024-02-14T13:47:42;0.30;;;0.30;;
4186;SDS011;2107;52.306;10.484;2024-02-14T13:50:11;0.20;;;0.20;;
4186;SDS011;2107;52.306;10.484;2024-02-14T13:52:38;0.20;;;0.20;;
4186;SDS011;2107;52.306;10.484;2024-02-14T13:55:05;0.20;;;0.20;;
4186;SDS011;2107;52.306;10.484;2024-02-14T13:57:33;0.10;;;0.10;;
4186;SDS011;2107;52.306;10.484;2024-02-14T14:00:03;0.10;;;0.10;;
4186;SDS011;2107;52.306;10.484;2024-02-14T14:02:30;0.10;;;0.10;;
4186;SDS011;2107;52.306;10.484;2024-02-14T14:04:57;0.10;;;0.10;;
4186;SDS011;2107;52.306;10.484;2024-02-14T14:07:25;0.10;;;0.10;;
4186;SDS011;2107;52.306;10.484;2024-02-14T14:09:52;0.10;;;0.10;;
4186;SDS011;2107;52.306;10.484;2024-02-14T14:12:19;0.10;;;0.10;;
4186;SDS011;2107;52.306;10.484;2024-02-14T14:14:46;0.10;;;0.10;;
4186;SDS011;2107;52.306;10.484;2024-02-14T14:17:13;0.10;;;0.10;;
4186;SDS011;2107;52.306;10.484;2024-02-14T14:19:40;0.10;;;0.10;;
4186;SDS011;2107;52.306;10.484;2024-02-14T14:22:07;0.10;;;0.10;;
4186;SDS011;2107;52.306;10.484;2024-02-14T14:24:35;0.10;;;0.10;;
4186;SDS011;2107;52.306;10.484;2024-02-14T14:27:02;0.20;;;0.20;;
4186;SDS011;2107;52.306;10.484;2024-02-14T14:29:32;0.20;;;0.20;;
4186;SDS011;2107;52.306;10.484;2024-02-14T14:31:59;0.20;;;0.20;;
4186;SDS011;2107;52.306;10.484;2024-02-14T14:34:26;0.20;;;0.20;;
4186;SDS011;2107;52.306;10.484;2024-02-14T14:36:55;0.20;;;0.20;;
4186;SDS011;2107;52.306;10.484;2024-02-14T14:39:22;0.20;;;0.20;;
4186;SDS011;2107;52.306;10.484;2024-02-14T14:41:50;0.20;;;0.20;;
4186;SDS011;2107;52.306;10.484;2024-02-14T14:44:18;0.20;;;0.20;;
4186;SDS011;2107;52.306;10.484;2024-02-14T14:46:45;0.20;;;0.20;;
4186;SDS011;2107;52.306;10.484;2024-02-14T14:49:12;0.20;;;0.20;;
4186;SDS011;2107;52.306;10.484;2024-02-14T14:51:38;0.17;;;0.17;;
4186;SDS011;2107;52.306;10.484;2024-02-14T14:54:05;0.20;;;0.20;;
4186;SDS011;2107;52.306;10.484;2024-02-14T14:56:32;0.20;;;0.20;;
4186;SDS011;2107;52.306;10.484;2024-02-14T14:59:00;0.20;;;0.20;;
4186;SDS011;2107;52.306;10.484;2024-02-14T15:01:28;0.20;;;0.20;;
4186;SDS011;2107;52.306;10.484;2024-02-14T15:03:55;0.10;;;0.10;;